Time;durP1;ratioP1;P1;durP2;ratioP2;P2;SDS_P1;SDS_P2;PMS_P1;PMS_P2;Temp;Humidity;BMP_temperature;BMP_pressure;BME280_temperature;BME280_humidity;BME280_pressure;Samples;Min_cycle;Max_cycle;Signal;HPM_P1;HPM_P2
2023/09/06 00:00:42;;;;;;;;;;;14.20;64.00;;;;;;4130223;28;19932;-84
2023/09/06 00:03:03;;;;;;;;;;;14.20;63.90;;;;;;4147701;28;19921;-82
2023/09/06 00:05:24;;;;;;;;;;;14.10;64.00;;;;;;4134754;28;19921;-82
2023/09/06 00:07:45;;;;;;;;;;;14.10;64.10;;;;;;4134710;28;20141;-83
2023/09/06 00:09:45;;;;;;;;;;;14.10;64.30;;;;;;4132313;28;20132;-83
2023/09/06 00:11:46;;;;;;;;;;;14.10;64.20;;;;;;4138384;28;20375;-82
2023/09/06 00:13:49;;;;;;;;;;;14.00;64.20;;;;;;4140877;28;20365;-83
2023/09/06 00:16:09;;;;;;;;;;;14.00;64.30;;;;;;4144398;28;19925;-83
2023/09/06 00:18:30;;;;;;;;;;;14.00;64.10;;;;;;4157183;28;19921;-83
2023/09/06 00:20:51;;;;;;;;;;;14.00;64.30;;;;;;4155109;28;19985;-82
2023/09/06 00:23:13;;;;;;;;;;;14.00;64.20;;;;;;4153050;28;20707;-83
2023/09/06 00:25:34;;;;;;;;;;;13.90;64.00;;;;;;4137078;28;19946;-84
2023/09/06 00:27:55;;;;;;;;;;;14.00;64.20;;;;;;4138523;28;19927;-83
2023/09/06 00:30:18;;;;;;;;;;;13.90;64.40;;;;;;4140715;28;20013;-83
2023/09/06 00:32:38;;;;;;;;;;;13.90;64.60;;;;;;4139058;28;19924;-84
2023/09/06 00:34:59;;;;;;;;;;;13.90;64.70;;;;;;4136653;28;19975;-83
2023/09/06 00:37:33;;;;;;;;;;;13.90;64.80;;;;;;4139314;28;19918;-84
2023/09/06 00:39:54;;;;;;;;;;;13.90;64.90;;;;;;4140832;28;19976;-83
2023/09/06 00:42:14;;;;;;;;;;;13.80;64.80;;;;;;4139341;28;19921;-84
2023/09/06 00:44:35;;;;;;;;;;;13.90;64.90;;;;;;4133755;28;19917;-83
2023/09/06 00:46:55;;;;;;;;;;;13.80;64.90;;;;;;4137315;28;20024;-84
2023/09/06 00:49:16;;;;;;;;;;;13.80;65.00;;;;;;4139585;28;19952;-84
2023/09/06 00:51:36;;;;;;;;;;;13.70;65.00;;;;;;4136227;28;19925;-85
2023/09/06 00:54:00;;;;;;;;;;;13.80;65.10;;;;;;4136191;28;19924;-84
2023/09/06 00:56:22;;;;;;;;;;;13.70;65.00;;;;;;4128849;28;19985;-84
2023/09/06 00:58:43;;;;;;;;;;;13.70;65.00;;;;;;4130151;28;19922;-84
2023/09/06 01:00:44;;;;;;;;;;;13.60;65.00;;;;;;4131488;28;20441;-84
2023/09/06 01:03:05;;;;;;;;;;;13.70;65.20;;;;;;4136919;28;19932;-83
2023/09/06 01:05:30;;;;;;;;;;;13.70;65.30;;;;;;4131341;28;19926;-84
2023/09/06 01:07:57;;;;;;;;;;;13.60;65.40;;;;;;4138923;28;19928;-83
2023/09/06 01:10:20;;;;;;;;;;;13.60;65.40;;;;;;4140018;28;20044;-83
2023/09/06 01:12:40;;;;;;;;;;;13.60;65.40;;;;;;4139773;28;20152;-84
2023/09/06 01:15:04;;;;;;;;;;;13.60;65.30;;;;;;4144003;28;19921;-84
2023/09/06 01:17:26;;;;;;;;;;;13.50;65.20;;;;;;4137668;28;19922;-84
2023/09/06 01:19:51;;;;;;;;;;;13.50;65.20;;;;;;4133980;28;19996;-85
2023/09/06 01:22:31;;;;;;;;;;;13.60;65.60;;;;;;4135092;28;20012;-84
2023/09/06 01:24:52;;;;;;;;;;;13.50;65.70;;;;;;4134776;28;19917;-84
2023/09/06 01:27:12;;;;;;;;;;;13.50;65.80;;;;;;4137481;28;19926;-83
2023/09/06 01:29:34;;;;;;;;;;;13.50;65.90;;;;;;4130779;28;19940;-84
2023/09/06 01:31:55;;;;;;;;;;;13.40;65.90;;;;;;4134453;28;19933;-83
2023/09/06 01:34:16;;;;;;;;;;;13.40;66.10;;;;;;4137889;28;19914;-84
2023/09/06 01:36:36;;;;;;;;;;;13.40;66.10;;;;;;4137148;28;20000;-84
2023/09/06 01:38:57;;;;;;;;;;;13.40;66.10;;;;;;4131643;28;20394;-83
2023/09/06 01:41:17;;;;;;;;;;;13.50;66.30;;;;;;4132785;28;19921;-84
2023/09/06 01:43:38;;;;;;;;;;;13.40;66.20;;;;;;4152543;28;19918;-85
2023/09/06 01:45:47;;;;;;;;;;;13.40;66.10;;;;;;4167847;28;19909;-84
2023/09/06 01:48:08;;;;;;;;;;;13.40;66.20;;;;;;4138063;28;20712;-84
2023/09/06 01:50:19;;;;;;;;;;;13.40;66.20;;;;;;4150307;28;19929;-83
2023/09/06 01:52:24;;;;;;;;;;;13.40;66.10;;;;;;4139115;28;19917;-84
2023/09/06 01:54:45;;;;;;;;;;;13.20;66.10;;;;;;4138142;28;19921;-84
2023/09/06 01:57:06;;;;;;;;;;;13.30;66.50;;;;;;4141787;28;19914;-83
2023/09/06 01:59:26;;;;;;;;;;;13.30;66.50;;;;;;4143040;28;19918;-83
2023/09/06 02:01:46;;;;;;;;;;;13.30;66.60;;;;;;4142320;28;19957;-83
2023/09/06 02:04:07;;;;;;;;;;;13.30;66.70;;;;;;4142031;28;20347;-83
2023/09/06 02:06:19;;;;;;;;;;;13.20;66.60;;;;;;4138678;28;19944;-84
2023/09/06 02:08:39;;;;;;;;;;;13.20;66.70;;;;;;4141585;28;20028;-83
2023/09/06 02:11:00;;;;;;;;;;;13.20;66.70;;;;;;4136822;28;19921;-83
2023/09/06 02:13:20;;;;;;;;;;;13.20;66.70;;;;;;4145187;28;19913;-84
2023/09/06 02:15:41;;;;;;;;;;;13.20;66.70;;;;;;4142172;28;19917;-84
2023/09/06 02:18:01;;;;;;;;;;;13.10;66.80;;;;;;4143047;28;19932;-83
2023/09/06 02:20:22;;;;;;;;;;;13.10;66.70;;;;;;4138275;28;19928;-84
2023/09/06 02:22:43;;;;;;;;;;;13.00;66.60;;;;;;4138418;28;19917;-85
2023/09/06 02:25:04;;;;;;;;;;;13.00;66.60;;;;;;4138584;28;19925;-84
2023/09/06 02:27:25;;;;;;;;;;;13.00;66.50;;;;;;4142163;28;19925;-84
2023/09/06 02:29:45;;;;;;;;;;;12.90;66.50;;;;;;4138751;28;19922;-83
2023/09/06 02:32:06;;;;;;;;;;;13.00;66.80;;;;;;4134820;28;19995;-84
2023/09/06 02:34:26;;;;;;;;;;;12.90;66.70;;;;;;4138580;28;19922;-84
2023/09/06 02:36:47;;;;;;;;;;;12.90;66.80;;;;;;4142161;28;19972;-83
2023/09/06 02:39:07;;;;;;;;;;;12.80;66.90;;;;;;4158448;28;19929;-83
2023/09/06 02:41:29;;;;;;;;;;;12.90;67.00;;;;;;4143201;28;19914;-84
2023/09/06 02:43:50;;;;;;;;;;;12.80;67.00;;;;;;4144386;28;19945;-84
2023/09/06 02:46:12;;;;;;;;;;;12.80;67.00;;;;;;4140011;28;19957;-85
2023/09/06 02:48:33;;;;;;;;;;;12.90;67.10;;;;;;4144736;28;19925;-84
2023/09/06 02:50:54;;;;;;;;;;;12.80;67.10;;;;;;4141424;28;19998;-83
2023/09/06 02:53:19;;;;;;;;;;;12.80;67.20;;;;;;4142260;28;20382;-84
2023/09/06 02:55:40;;;;;;;;;;;12.80;67.20;;;;;;4134939;28;20330;-83
2023/09/06 02:58:01;;;;;;;;;;;12.70;67.20;;;;;;4137495;28;19960;-84
2023/09/06 03:00:25;;;;;;;;;;;12.70;67.20;;;;;;4132760;28;19932;-83
2023/09/06 03:02:46;;;;;;;;;;;12.80;67.60;;;;;;4133226;28;20519;-84
2023/09/06 03:05:09;;;;;;;;;;;12.70;67.50;;;;;;4136353;28;19921;-84
2023/09/06 03:07:33;;;;;;;;;;;12.70;67.40;;;;;;4153212;28;19999;-84
2023/09/06 03:09:53;;;;;;;;;;;12.70;67.40;;;;;;4140979;28;19921;-84
2023/09/06 03:12:14;;;;;;;;;;;12.60;67.40;;;;;;4140282;28;19980;-84
2023/09/06 03:14:36;;;;;;;;;;;12.70;67.60;;;;;;4145886;28;19914;-84
2023/09/06 03:16:57;;;;;;;;;;;12.60;67.60;;;;;;4142642;28;19922;-83
2023/09/06 03:19:18;;;;;;;;;;;12.60;67.60;;;;;;4142223;28;19917;-83
2023/09/06 03:21:39;;;;;;;;;;;12.60;67.60;;;;;;4139340;28;19932;-84
2023/09/06 03:24:00;;;;;;;;;;;12.60;67.80;;;;;;4144152;28;19952;-85
2023/09/06 03:26:22;;;;;;;;;;;12.60;67.80;;;;;;4139999;28;19913;-83
2023/09/06 03:28:43;;;;;;;;;;;12.60;67.70;;;;;;4142919;28;19921;-83
2023/09/06 03:31:03;;;;;;;;;;;12.50;67.70;;;;;;4137722;28;19943;-83
2023/09/06 03:33:25;;;;;;;;;;;12.50;68.20;;;;;;4139849;28;19964;-84
2023/09/06 03:35:46;;;;;;;;;;;12.50;67.90;;;;;;4141325;28;19918;-83
2023/09/06 03:38:08;;;;;;;;;;;12.40;67.80;;;;;;4140866;28;19918;-83
2023/09/06 03:40:35;;;;;;;;;;;12.40;67.80;;;;;;4141483;28;19972;-84
2023/09/06 03:42:55;;;;;;;;;;;12.40;67.90;;;;;;4142036;28;19949;-85
2023/09/06 03:45:21;;;;;;;;;;;12.40;68.00;;;;;;4141530;28;19933;-83
2023/09/06 03:47:41;;;;;;;;;;;12.40;68.00;;;;;;4141830;28;20438;-84
2023/09/06 03:50:04;;;;;;;;;;;12.40;67.90;;;;;;4141584;28;19921;-84
2023/09/06 03:52:26;;;;;;;;;;;12.30;67.90;;;;;;4138051;28;19928;-83
2023/09/06 03:54:47;;;;;;;;;;;12.40;68.20;;;;;;4132097;28;20067;-85
2023/09/06 03:57:07;;;;;;;;;;;12.30;68.00;;;;;;4138903;28;19944;-85
2023/09/06 03:59:28;;;;;;;;;;;12.30;68.00;;;;;;4142571;28;19957;-84
2023/09/06 04:01:48;;;;;;;;;;;12.30;68.10;;;;;;4140910;28;19932;-84
2023/09/06 04:04:09;;;;;;;;;;;12.20;67.80;;;;;;4139977;28;19924;-84
2023/09/06 04:06:30;;;;;;;;;;;12.30;68.00;;;;;;4138060;28;20145;-84
2023/09/06 04:08:53;;;;;;;;;;;12.30;68.90;;;;;;4135576;28;19921;-87
2023/09/06 04:11:13;;;;;;;;;;;12.20;68.10;;;;;;4131078;28;20176;-85
2023/09/06 04:13:34;;;;;;;;;;;12.20;68.00;;;;;;4136057;28;20458;-85
2023/09/06 04:15:55;;;;;;;;;;;12.20;68.10;;;;;;4130944;28;20430;-84
2023/09/06 04:18:15;;;;;;;;;;;12.10;68.50;;;;;;4137173;28;19921;-84
2023/09/06 04:20:36;;;;;;;;;;;12.10;68.20;;;;;;4130977;28;19917;-84
2023/09/06 04:22:58;;;;;;;;;;;12.10;68.20;;;;;;4146503;28;20386;-85
2023/09/06 04:25:22;;;;;;;;;;;12.20;68.40;;;;;;4139678;28;20497;-86
2023/09/06 04:27:46;;;;;;;;;;;12.10;69.20;;;;;;4154814;28;20120;-85
2023/09/06 04:30:08;;;;;;;;;;;12.10;68.50;;;;;;4150465;28;20763;-84
2023/09/06 04:32:29;;;;;;;;;;;12.00;68.50;;;;;;4138772;28;19929;-85
2023/09/06 04:34:49;;;;;;;;;;;12.00;68.60;;;;;;4138811;28;19932;-84
2023/09/06 04:37:12;;;;;;;;;;;12.10;68.60;;;;;;4133045;28;20468;-85
2023/09/06 04:39:33;;;;;;;;;;;12.00;68.70;;;;;;4133993;28;19952;-85
2023/09/06 04:41:54;;;;;;;;;;;12.00;68.70;;;;;;4137673;28;19944;-83
2023/09/06 04:44:14;;;;;;;;;;;12.10;68.80;;;;;;4137014;28;20354;-84
2023/09/06 04:46:34;;;;;;;;;;;12.00;68.80;;;;;;4136656;28;19947;-84
2023/09/06 04:48:55;;;;;;;;;;;12.00;69.00;;;;;;4139000;28;20528;-84
2023/09/06 04:51:14;;;;;;;;;;;12.00;69.10;;;;;;4138266;28;19923;-84
2023/09/06 04:53:34;;;;;;;;;;;12.00;69.10;;;;;;4142080;28;20025;-84
2023/09/06 04:55:54;;;;;;;;;;;12.00;69.10;;;;;;4156140;28;19929;-84
2023/09/06 04:58:13;;;;;;;;;;;12.00;69.20;;;;;;4157905;28;20000;-83
2023/09/06 05:00:37;;;;;;;;;;;12.00;69.20;;;;;;4142960;28;20009;-85
2023/09/06 05:02:56;;;;;;;;;;;12.00;69.20;;;;;;4133425;28;20029;-85
2023/09/06 05:05:16;;;;;;;;;;;12.10;69.30;;;;;;4129587;28;19921;-87
2023/09/06 05:07:36;;;;;;;;;;;12.00;70.20;;;;;;4133132;28;19936;-85
2023/09/06 05:09:57;;;;;;;;;;;12.00;69.50;;;;;;4137970;28;19924;-83
2023/09/06 05:12:16;;;;;;;;;;;12.00;69.50;;;;;;4138260;28;19963;-84
2023/09/06 05:14:35;;;;;;;;;;;12.00;69.60;;;;;;4141052;28;19924;-84
2023/09/06 05:16:54;;;;;;;;;;;12.00;69.70;;;;;;4141609;28;19924;-84
2023/09/06 05:19:14;;;;;;;;;;;12.00;69.40;;;;;;4142689;28;19928;-84
2023/09/06 05:21:35;;;;;;;;;;;12.00;69.60;;;;;;4142070;28;19929;-83
2023/09/06 05:23:54;;;;;;;;;;;12.10;70.50;;;;;;4142988;28;19980;-84
2023/09/06 05:26:13;;;;;;;;;;;12.00;70.80;;;;;;4141910;28;20316;-84
2023/09/06 05:28:32;;;;;;;;;;;12.00;70.10;;;;;;4141440;28;19925;-83
2023/09/06 05:30:51;;;;;;;;;;;12.00;70.10;;;;;;4139851;28;19940;-84
2023/09/06 05:33:11;;;;;;;;;;;12.10;70.30;;;;;;4154858;28;20432;-83
2023/09/06 05:35:31;;;;;;;;;;;12.10;70.40;;;;;;4141522;28;19940;-83
2023/09/06 05:37:50;;;;;;;;;;;12.10;70.50;;;;;;4139757;28;19920;-84
2023/09/06 05:40:12;;;;;;;;;;;12.20;70.50;;;;;;4175828;23;19944;-84
2023/09/06 05:42:31;;;;;;;;;;;12.20;70.60;;;;;;4139096;28;20011;-86
2023/09/06 05:44:51;;;;;;;;;;;12.20;70.80;;;;;;4140384;28;19920;-86
2023/09/06 05:47:10;;;;;;;;;;;12.20;71.00;;;;;;4146083;28;19936;-86
2023/09/06 05:49:29;;;;;;;;;;;12.30;71.10;;;;;;4143941;28;19920;-86
2023/09/06 05:51:49;;;;;;;;;;;12.30;71.40;;;;;;4148158;28;19921;-86
2023/09/06 05:54:09;;;;;;;;;;;12.40;71.40;;;;;;4143257;28;20517;-87
2023/09/06 05:56:28;;;;;;;;;;;12.40;71.50;;;;;;4151611;28;19923;-85
2023/09/06 05:58:47;;;;;;;;;;;12.50;72.30;;;;;;4136573;28;19920;-86
2023/09/06 06:01:08;;;;;;;;;;;12.60;71.60;;;;;;4139378;28;19924;-85
2023/09/06 06:03:27;;;;;;;;;;;12.60;72.00;;;;;;4156900;28;19967;-84
2023/09/06 06:05:47;;;;;;;;;;;12.70;72.30;;;;;;4149618;28;19924;-83
2023/09/06 06:08:06;;;;;;;;;;;12.70;72.30;;;;;;4152032;28;19928;-86
2023/09/06 06:10:29;;;;;;;;;;;12.80;73.20;;;;;;4137931;28;19919;-86
2023/09/06 06:12:48;;;;;;;;;;;12.90;73.20;;;;;;4136854;28;19924;-85
2023/09/06 06:15:08;;;;;;;;;;;13.00;72.70;;;;;;4132010;28;19928;-87
2023/09/06 06:17:27;;;;;;;;;;;13.00;73.40;;;;;;4135270;28;19945;-86
2023/09/06 06:19:48;;;;;;;;;;;13.10;72.80;;;;;;4137366;28;19920;-86
2023/09/06 06:22:06;;;;;;;;;;;13.30;73.00;;;;;;4134943;28;20722;-86
2023/09/06 06:24:26;;;;;;;;;;;13.40;72.90;;;;;;4135763;28;20023;-86
2023/09/06 06:26:45;;;;;;;;;;;13.50;73.10;;;;;;4134967;28;19956;-86
2023/09/06 06:29:04;;;;;;;;;;;13.60;73.10;;;;;;4136989;28;19920;-86
2023/09/06 06:31:24;;;;;;;;;;;13.70;73.20;;;;;;4136118;28;19947;-86
2023/09/06 06:33:43;;;;;;;;;;;13.90;73.50;;;;;;4137114;28;19921;-86
2023/09/06 06:36:03;;;;;;;;;;;13.90;73.60;;;;;;4134522;28;20148;-84
2023/09/06 06:38:22;;;;;;;;;;;14.10;73.90;;;;;;4147142;28;19928;-84
2023/09/06 06:40:41;;;;;;;;;;;14.20;74.00;;;;;;4146489;28;19932;-84
2023/09/06 06:43:00;;;;;;;;;;;14.40;74.40;;;;;;4152986;28;19928;-84
2023/09/06 06:45:20;;;;;;;;;;;14.60;74.50;;;;;;4149653;28;20020;-85
2023/09/06 06:47:39;;;;;;;;;;;14.60;74.90;;;;;;4153665;28;19924;-84
2023/09/06 06:50:03;;;;;;;;;;;14.90;75.70;;;;;;4152483;28;19928;-84
2023/09/06 06:52:22;;;;;;;;;;;15.00;78.60;;;;;;4143612;28;19967;-84
2023/09/06 06:54:41;;;;;;;;;;;15.10;77.30;;;;;;4138512;28;19929;-84
2023/09/06 06:57:01;;;;;;;;;;;15.30;78.00;;;;;;4140771;28;19976;-85
2023/09/06 06:59:20;;;;;;;;;;;15.50;78.20;;;;;;4138852;28;20013;-84
2023/09/06 07:01:39;;;;;;;;;;;15.70;82.60;;;;;;4136410;28;19987;-84
2023/09/06 07:03:59;;;;;;;;;;;15.80;85.30;;;;;;4140875;28;19932;-85
2023/09/06 07:06:18;;;;;;;;;;;16.10;87.80;;;;;;4139597;28;20168;-84
2023/09/06 07:08:38;;;;;;;;;;;16.10;86.90;;;;;;4153805;28;19928;-84
2023/09/06 07:10:59;;;;;;;;;;;16.40;89.50;;;;;;4136643;28;19925;-85
2023/09/06 07:13:18;;;;;;;;;;;16.60;90.30;;;;;;4140129;28;20011;-84
2023/09/06 07:15:38;;;;;;;;;;;16.70;90.00;;;;;;4141498;28;19947;-84
2023/09/06 07:18:00;;;;;;;;;;;16.90;90.50;;;;;;4136449;28;20017;-85
2023/09/06 07:20:19;;;;;;;;;;;17.10;90.70;;;;;;4142070;28;19940;-84
2023/09/06 07:22:38;;;;;;;;;;;17.20;90.40;;;;;;4137962;28;19928;-85
2023/09/06 07:24:57;;;;;;;;;;;17.30;90.40;;;;;;4143862;28;20041;-84
2023/09/06 07:27:16;;;;;;;;;;;17.50;90.50;;;;;;4138655;28;19971;-86
2023/09/06 07:29:35;;;;;;;;;;;17.60;90.10;;;;;;4136301;28;20375;-85
2023/09/06 07:31:55;;;;;;;;;;;17.80;90.00;;;;;;4137430;28;19963;-85
2023/09/06 07:34:14;;;;;;;;;;;17.90;89.80;;;;;;4136765;28;20257;-84
2023/09/06 07:36:15;;;;;;;;;;;18.00;89.10;;;;;;4141554;28;19918;-85
2023/09/06 07:38:16;;;;;;;;;;;18.20;88.40;;;;;;4139099;28;19917;-85
2023/09/06 07:40:16;;;;;;;;;;;18.30;88.30;;;;;;4139242;28;19926;-84
2023/09/06 07:42:17;;;;;;;;;;;18.40;87.50;;;;;;4121182;28;20350;-86
2023/09/06 07:44:18;;;;;;;;;;;18.50;87.00;;;;;;4136177;28;19921;-85
2023/09/06 07:46:18;;;;;;;;;;;18.60;86.40;;;;;;4136481;28;19918;-85
2023/09/06 07:48:19;;;;;;;;;;;18.70;85.90;;;;;;4136351;28;20027;-86
2023/09/06 07:50:20;;;;;;;;;;;18.80;84.90;;;;;;4139848;28;19921;-85
2023/09/06 07:52:20;;;;;;;;;;;18.90;84.20;;;;;;4136649;28;20183;-85
2023/09/06 07:54:23;;;;;;;;;;;19.10;83.10;;;;;;4141932;28;19964;-85
2023/09/06 07:56:25;;;;;;;;;;;19.10;82.50;;;;;;4138340;28;20247;-86
2023/09/06 07:58:45;;;;;;;;;;;19.20;80.80;;;;;;4139180;28;19977;-84
2023/09/06 08:00:46;;;;;;;;;;;19.20;80.50;;;;;;4139790;28;19917;-85
2023/09/06 08:03:07;;;;;;;;;;;19.50;80.50;;;;;;4138353;28;20036;-86
2023/09/06 08:05:28;;;;;;;;;;;19.40;77.50;;;;;;4135209;28;19922;-84
2023/09/06 08:07:48;;;;;;;;;;;19.60;77.70;;;;;;4138657;28;19925;-85
2023/09/06 08:10:09;;;;;;;;;;;19.70;77.50;;;;;;4136568;28;20458;-84
2023/09/06 08:12:30;;;;;;;;;;;19.80;75.50;;;;;;4135979;28;19933;-86
2023/09/06 08:14:50;;;;;;;;;;;19.90;74.50;;;;;;4136400;28;19976;-88
2023/09/06 08:17:11;;;;;;;;;;;19.90;72.80;;;;;;4136313;28;19953;-86
2023/09/06 08:19:31;;;;;;;;;;;20.00;72.20;;;;;;4137824;28;20789;-84
2023/09/06 08:21:51;;;;;;;;;;;20.10;72.60;;;;;;4140900;28;20114;-84
2023/09/06 08:24:12;;;;;;;;;;;20.20;72.50;;;;;;4141868;28;19918;-85
2023/09/06 08:26:33;;;;;;;;;;;20.40;72.80;;;;;;4139201;28;19921;-87
2023/09/06 08:28:53;;;;;;;;;;;20.40;71.70;;;;;;4138348;28;20015;-84
2023/09/06 08:31:13;;;;;;;;;;;20.50;70.80;;;;;;4137473;28;19928;-87
2023/09/06 08:33:34;;;;;;;;;;;20.70;70.70;;;;;;4136331;28;19955;-85
2023/09/06 08:35:55;;;;;;;;;;;20.70;70.50;;;;;;4139685;28;19917;-84
2023/09/06 08:38:16;;;;;;;;;;;20.90;70.40;;;;;;4137757;28;19924;-84
2023/09/06 08:40:37;;;;;;;;;;;20.90;69.90;;;;;;4138946;28;19921;-85
2023/09/06 08:43:04;;;;;;;;;;;21.00;68.30;;;;;;4137154;28;20375;-86
2023/09/06 08:45:25;;;;;;;;;;;21.10;69.40;;;;;;4135866;28;19917;-86
2023/09/06 08:47:47;;;;;;;;;;;21.20;68.50;;;;;;4140628;28;19925;-85
2023/09/06 08:50:09;;;;;;;;;;;21.30;68.60;;;;;;4136760;28;19921;-86
2023/09/06 08:52:10;;;;;;;;;;;21.30;67.20;;;;;;4140748;28;20016;-85
2023/09/06 08:54:12;;;;;;;;;;;21.50;68.10;;;;;;4137622;28;20382;-85
2023/09/06 08:56:15;;;;;;;;;;;21.50;67.80;;;;;;4137083;28;19921;-87
2023/09/06 08:58:16;;;;;;;;;;;21.60;66.40;;;;;;4135766;28;19921;-86
2023/09/06 09:00:17;;;;;;;;;;;21.60;64.80;;;;;;4135402;28;19913;-85
2023/09/06 09:02:18;;;;;;;;;;;21.70;64.00;;;;;;4139353;28;20421;-86
2023/09/06 09:04:20;;;;;;;;;;;21.70;63.40;;;;;;4134516;28;19917;-85
2023/09/06 09:06:21;;;;;;;;;;;21.80;64.40;;;;;;4139536;28;19983;-86
2023/09/06 09:08:21;;;;;;;;;;;21.90;64.90;;;;;;4134751;28;19921;-86
2023/09/06 09:10:25;;;;;;;;;;;21.90;63.30;;;;;;4123998;28;19913;-86
2023/09/06 09:12:26;;;;;;;;;;;22.00;64.30;;;;;;4137570;28;19914;-87
2023/09/06 09:14:27;;;;;;;;;;;22.00;61.90;;;;;;4138309;28;19921;-83
2023/09/06 09:16:28;;;;;;;;;;;22.10;63.10;;;;;;4138193;28;20446;-88
2023/09/06 09:18:30;;;;;;;;;;;22.10;60.40;;;;;;4138161;28;20615;-85
2023/09/06 09:20:31;;;;;;;;;;;22.10;60.80;;;;;;4135354;28;19925;-87
2023/09/06 09:22:35;;;;;;;;;;;22.10;60.70;;;;;;4116902;28;19961;-87
2023/09/06 09:24:36;;;;;;;;;;;22.10;60.20;;;;;;4134318;28;20450;-86
2023/09/06 09:26:37;;;;;;;;;;;22.20;60.50;;;;;;4135321;28;19917;-85
2023/09/06 09:28:40;;;;;;;;;;;22.20;61.00;;;;;;4134414;28;20112;-85
2023/09/06 09:30:41;;;;;;;;;;;22.10;59.60;;;;;;4136518;28;19925;-85
2023/09/06 09:32:42;;;;;;;;;;;22.20;60.10;;;;;;4138722;28;20330;-84
2023/09/06 09:34:44;;;;;;;;;;;22.30;60.60;;;;;;4138458;28;20283;-85
2023/09/06 09:36:49;;;;;;;;;;;22.30;59.90;;;;;;4139496;28;19917;-85
2023/09/06 09:38:50;;;;;;;;;;;22.40;60.30;;;;;;4137586;28;19972;-84
2023/09/06 09:41:05;;;;;;;;;;;22.50;61.20;;;;;;4138616;28;20678;-84
2023/09/06 09:43:07;;;;;;;;;;;22.50;61.50;;;;;;4130331;28;19928;-85
2023/09/06 09:45:08;;;;;;;;;;;22.60;61.90;;;;;;4135070;28;20376;-88
2023/09/06 09:47:12;;;;;;;;;;;22.60;60.30;;;;;;4133646;28;20426;-86
2023/09/06 09:49:13;;;;;;;;;;;22.60;60.10;;;;;;4135668;28;20103;-86
2023/09/06 09:51:16;;;;;;;;;;;22.70;60.60;;;;;;4135311;28;20354;-85
2023/09/06 09:53:21;;;;;;;;;;;22.70;60.50;;;;;;4134407;28;19967;-87
2023/09/06 09:55:27;;;;;;;;;;;22.80;59.90;;;;;;4133678;28;20467;-86
2023/09/06 09:57:28;;;;;;;;;;;22.80;60.30;;;;;;4148645;28;19917;-85
2023/09/06 09:59:30;;;;;;;;;;;22.90;60.60;;;;;;4135296;28;19925;-87
2023/09/06 10:01:31;;;;;;;;;;;22.90;59.80;;;;;;4135801;28;20493;-85
2023/09/06 10:03:33;;;;;;;;;;;23.00;59.60;;;;;;4136657;28;19922;-85
2023/09/06 10:05:35;;;;;;;;;;;23.00;60.10;;;;;;4138516;28;19917;-84
2023/09/06 10:07:35;;;;;;;;;;;23.10;60.50;;;;;;4135362;28;19922;-84
2023/09/06 10:09:40;;;;;;;;;;;23.10;60.00;;;;;;4136516;28;19917;-86
2023/09/06 10:11:42;;;;;;;;;;;23.10;59.50;;;;;;4151900;28;20015;-85
2023/09/06 10:13:45;;;;;;;;;;;23.10;58.40;;;;;;4137694;28;19928;-86
2023/09/06 10:15:46;;;;;;;;;;;23.20;59.60;;;;;;4138509;28;19920;-85
2023/09/06 10:17:47;;;;;;;;;;;23.30;59.10;;;;;;4141435;28;19920;-86
2023/09/06 10:19:48;;;;;;;;;;;23.30;58.90;;;;;;4136675;28;19917;-85
2023/09/06 10:21:49;;;;;;;;;;;23.30;58.40;;;;;;4141312;28;19972;-84
2023/09/06 10:23:50;;;;;;;;;;;23.40;58.60;;;;;;4141043;28;20565;-84
2023/09/06 10:25:53;;;;;;;;;;;23.40;59.00;;;;;;4140882;28;19991;-86
2023/09/06 10:27:55;;;;;;;;;;;23.50;59.00;;;;;;4140014;28;20015;-85
2023/09/06 10:29:56;;;;;;;;;;;23.50;57.90;;;;;;4140205;28;19917;-86
2023/09/06 10:32:06;;;;;;;;;;;23.50;57.10;;;;;;4137078;28;19921;-87
2023/09/06 10:34:08;;;;;;;;;;;23.50;56.10;;;;;;4138787;28;19913;-85
2023/09/06 10:36:09;;;;;;;;;;;23.50;56.20;;;;;;4140001;28;20295;-86
2023/09/06 10:38:11;;;;;;;;;;;23.50;56.40;;;;;;4126420;28;19914;-87
2023/09/06 10:40:12;;;;;;;;;;;23.60;56.80;;;;;;4139884;28;20055;-84
2023/09/06 10:42:15;;;;;;;;;;;23.60;57.00;;;;;;4140710;28;20358;-87
2023/09/06 10:44:16;;;;;;;;;;;23.60;57.10;;;;;;4139161;28;19937;-86
2023/09/06 10:46:23;;;;;;;;;;;23.60;57.00;;;;;;4139821;28;20414;-87
2023/09/06 10:48:24;;;;;;;;;;;23.60;55.20;;;;;;4139230;28;19937;-86
2023/09/06 10:50:25;;;;;;;;;;;23.60;55.80;;;;;;4140520;28;19918;-84
2023/09/06 10:52:37;;;;;;;;;;;23.70;56.40;;;;;;4152444;28;19917;-85
2023/09/06 10:54:42;;;;;;;;;;;23.70;56.50;;;;;;4139321;28;19953;-88
2023/09/06 10:56:49;;;;;;;;;;;23.70;55.50;;;;;;4136591;28;19921;-87
2023/09/06 10:58:57;;;;;;;;;;;23.70;54.20;;;;;;4152591;28;19918;-83
2023/09/06 11:01:13;;;;;;;;;;;23.70;55.50;;;;;;4138334;28;19921;-88
2023/09/06 11:03:14;;;;;;;;;;;23.70;54.20;;;;;;4137749;28;19917;-88
2023/09/06 11:05:31;;;;;;;;;;;23.70;54.00;;;;;;4138890;28;19914;-84
2023/09/06 11:07:43;;;;;;;;;;;23.70;54.00;;;;;;4139979;28;19925;-85
2023/09/06 11:09:44;;;;;;;;;;;23.80;53.90;;;;;;4140534;28;19964;-88
2023/09/06 11:11:50;;;;;;;;;;;23.70;52.40;;;;;;4137478;28;20053;-86
2023/09/06 11:13:51;;;;;;;;;;;23.70;52.80;;;;;;4137752;28;20041;-86
2023/09/06 11:15:51;;;;;;;;;;;23.60;52.20;;;;;;4138663;28;20461;-87
2023/09/06 11:18:00;;;;;;;;;;;23.60;52.90;;;;;;4140672;28;20371;-87
2023/09/06 11:20:13;;;;;;;;;;;23.70;52.20;;;;;;4124069;28;19968;-85
2023/09/06 11:22:14;;;;;;;;;;;23.60;53.00;;;;;;4151340;28;19918;-86
2023/09/06 11:24:14;;;;;;;;;;;23.60;53.40;;;;;;4139003;28;19909;-88
2023/09/06 11:26:16;;;;;;;;;;;23.60;53.70;;;;;;4140141;28;20359;-88
2023/09/06 11:28:20;;;;;;;;;;;23.60;53.50;;;;;;4139496;28;19920;-87
2023/09/06 11:30:22;;;;;;;;;;;23.50;53.40;;;;;;4139418;28;19910;-88
2023/09/06 11:32:22;;;;;;;;;;;23.50;53.40;;;;;;4121384;28;19918;-88
2023/09/06 11:34:30;;;;;;;;;;;23.50;54.00;;;;;;4121803;28;19988;-84
2023/09/06 11:36:32;;;;;;;;;;;23.60;54.50;;;;;;4139346;28;20282;-89
2023/09/06 11:38:34;;;;;;;;;;;23.60;54.50;;;;;;4139777;28;19921;-88
2023/09/06 11:40:35;;;;;;;;;;;23.70;54.50;;;;;;4135936;28;19933;-87
2023/09/06 11:42:36;;;;;;;;;;;23.60;54.10;;;;;;4123047;28;19917;-89
2023/09/06 11:44:45;;;;;;;;;;;23.60;53.50;;;;;;4140362;28;19925;-86
2023/09/06 11:46:46;;;;;;;;;;;23.70;54.50;;;;;;4138451;28;19914;-88
2023/09/06 11:48:48;;;;;;;;;;;23.70;54.90;;;;;;4138483;28;19921;-89
2023/09/06 11:50:52;;;;;;;;;;;23.70;55.30;;;;;;4141201;28;19921;-88
2023/09/06 11:52:53;;;;;;;;;;;23.70;55.00;;;;;;4137047;28;20395;-86
2023/09/06 11:54:54;;;;;;;;;;;23.70;55.40;;;;;;4146128;23;19914;-85
2023/09/06 11:57:26;;;;;;;;;;;23.70;55.40;;;;;;4138817;28;19967;-88
2023/09/06 11:59:49;;;;;;;;;;;23.80;55.30;;;;;;4151924;28;19917;-86
2023/09/06 12:02:14;;;;;;;;;;;23.80;55.20;;;;;;4136750;28;19913;-86
2023/09/06 12:04:35;;;;;;;;;;;23.80;55.10;;;;;;4137724;28;19922;-85
2023/09/06 12:06:58;;;;;;;;;;;23.80;54.50;;;;;;4129222;28;19971;-86
2023/09/06 12:09:18;;;;;;;;;;;23.80;54.10;;;;;;4125833;28;19914;-87
2023/09/06 12:11:39;;;;;;;;;;;23.80;53.80;;;;;;4132288;28;19921;-84
2023/09/06 12:14:02;;;;;;;;;;;23.80;53.90;;;;;;4124710;28;20016;-86
2023/09/06 12:16:23;;;;;;;;;;;23.80;54.20;;;;;;4128754;28;20330;-85
2023/09/06 12:18:46;;;;;;;;;;;23.70;54.50;;;;;;4128154;28;20012;-85
2023/09/06 12:21:07;;;;;;;;;;;23.70;54.40;;;;;;4130830;28;19917;-88
2023/09/06 12:23:32;;;;;;;;;;;23.70;54.80;;;;;;4136402;28;19918;-86
2023/09/06 12:25:53;;;;;;;;;;;23.70;55.10;;;;;;4126021;28;19918;-87
2023/09/06 12:28:13;;;;;;;;;;;23.80;55.20;;;;;;4133092;28;19964;-85
2023/09/06 12:30:34;;;;;;;;;;;23.80;55.70;;;;;;4132734;28;20264;-85
2023/09/06 12:32:54;;;;;;;;;;;23.80;55.40;;;;;;4129362;28;19922;-85
2023/09/06 12:35:15;;;;;;;;;;;23.80;55.60;;;;;;4128905;28;19918;-86
2023/09/06 12:37:39;;;;;;;;;;;23.90;55.40;;;;;;4131657;28;19976;-87
2023/09/06 12:40:00;;;;;;;;;;;23.90;55.80;;;;;;4130283;28;19909;-86
2023/09/06 12:42:21;;;;;;;;;;;23.90;55.60;;;;;;4127553;28;19968;-87
2023/09/06 12:44:41;;;;;;;;;;;23.90;55.30;;;;;;4129510;28;19926;-86
2023/09/06 12:47:02;;;;;;;;;;;23.90;55.40;;;;;;4127765;28;19918;-86
2023/09/06 12:49:22;;;;;;;;;;;23.90;54.90;;;;;;4124505;28;20008;-86
2023/09/06 12:51:47;;;;;;;;;;;24.00;55.50;;;;;;4126016;28;20366;-85
2023/09/06 12:54:08;;;;;;;;;;;23.90;56.10;;;;;;4125200;28;19917;-86
2023/09/06 12:56:32;;;;;;;;;;;24.00;55.90;;;;;;4122165;28;19918;-85
2023/09/06 12:58:52;;;;;;;;;;;24.00;56.60;;;;;;4123903;28;19929;-86
2023/09/06 13:01:13;;;;;;;;;;;24.00;55.90;;;;;;4129656;28;19914;-87
2023/09/06 13:03:34;;;;;;;;;;;24.00;56.10;;;;;;4128298;28;20017;-86
2023/09/06 13:05:55;;;;;;;;;;;23.90;55.80;;;;;;4131179;28;19922;-87